Impacts TAF Board INFO
FOR SITUATIONAL AWARENESS. NOT TO BE USED FOR FLIGHT PLANNING PURPOSES.
IDs:

KCLT - Charlotte/Douglas In, NC, US

Issued at 1127 UTC 25 Feb 2018
Updated at 1327 UTC 25 Feb 2018
Potential Impact None Slight Moderate High
Time<<26/14Z 26/15Z 26/16Z 26/17Z 26/18Z 26/19Z 26/20Z 26/21Z 26/22Z 26/23Z 27/00Z 27/01Z 27/02Z
Type PRVL PRVL PRVL PRVL
VIS 4 4 4 4
CIG 30 30 30 30
Cover OVC OVC OVC OVC
FltCat MVFR MVFR MVFR MVFR
WX -SHRA BR -SHRA BR -SHRA BR -SHRA BR
WDir VRB VRB VRB VRB
WSpd 2 2 2 2
WGst -- -- -- --

Raw TAF
KCLT 251127Z 2512/2618 18011KT P6SM FEW080 BKN090
  FM251600 22012G19KT P6SM VCSH OVC030
  FM251800 23010G18KT P6SM -SHRA OVC035
  TEMPO 2518/2521 5SM RA BR
  FM252200 22006KT P6SM VCSH OVC060
  FM261100 VRB02KT 4SM -SHRA BR OVC030


METAR Board
Radar Display
Forecast Discussion

FOR SITUATIONAL AWARENESS. NOT TO BE USED FOR FLIGHT PLANNING PURPOSES.